Aérodrome :
LOGIN :

S'inscrire | Disclaimer

   EN    FR    IT 

 










Légende :    VFR   VFR Marginal   IFR   IFR Intensif   IFR Très Intensif
Visi : 
Plafond : 
>= 8 km
>= 3000ft
5 à 8 km
1000 à 3000 ft
1500m à 5 km
500 à 1000 ft
800 à 1500m
200 à 500 ft
< 800m
< 200 ft
Symboles :   Orages  Brouillard  Fortes neiges  Fortes précipitations  Vent > 20 kt
SIGMETs :   Divers  Orages  Givrage  Turbulence  Onde Orograph.  Cendres Volcan.







- Altitude de l'aérodrome : 796 ft
- Code IATA : SYT
- Voir les cartes d'approche


LFLN - Saint-Yan

DERNIER METAR :
  • 261700Z AUTO 36005KT CAVOK 14/04 Q1019 NOSIG

METARs EXPIRÉS :
  • 261630Z AUTO 35007KT 320V020 CAVOK 16/04 Q1019 NOSIG
  • 261600Z AUTO 36006KT 330V030 CAVOK 16/03 Q1020 NOSIG
  • 261530Z AUTO 31006KT 280V360 CAVOK 16/04 Q1020 NOSIG
  • 261500Z AUTO 29007KT 230V320 CAVOK 16/04 Q1020 NOSIG
  • 261430Z AUTO 33008KT CAVOK 15/04 Q1020 NOSIG
  • 261400Z AUTO 28006KT 230V320 CAVOK 16/04 Q1021 NOSIG

TAF TAF LFLN
Valide du 26 à 15h jusqu'au 27 à 00h UTC


261400Z 2615/2624 32005KT 9999 BKN050
BECMG 2618/2620 CAVOK
Pas de NOTAMs connus pour ce terrain.



MET'MAP, la Météo Aéronautique d'un coup d'oeil ! - Copyright ORBIFLY Décembre 2007 - Disclaimer

ORBIFLY MET'MAP TEAM :

Programmation & Développement : Alexandra Zaïnal
Conception & Développement : Baudouin d'Aumeries
Co-Programmation & Développement : Marc-Olivier Méhu
Soutien technique & logistique : Manuel Goepfert

Contact : metmap@orbifly.com




SOURCES & CREDITS :

   NOAA